Time;durP1;ratioP1;P1;durP2;ratioP2;P2;SDS_P1;SDS_P2;PMS_P1;PMS_P2;Temp;Humidity;BMP_temperature;BMP_pressure;BME280_temperature;BME280_humidity;BME280_pressure;Samples;Min_cycle;Max_cycle;Signal;HPM_P1;HPM_P2
2022/04/27 09:12:59;;;;;;;2.50;0.20;;;13.10;92.00;;;;;;5093626;28;20055;-73
2022/04/27 09:15:26;;;;;;;2.72;0.50;;;13.10;91.90;;;;;;5094996;28;20040;-73
2022/04/27 09:23:24;;;;;;;1.40;0.30;;;13.20;96.00;;;;;;5095192;28;20067;-73
2022/04/27 09:25:53;;;;;;;3.10;0.43;;;13.40;95.40;;;;;;5094795;28;20481;-73
2022/04/27 09:28:21;;;;;;;;;;;13.50;96.90;;;;;;5095040;28;20033;-73
2022/04/27 09:30:48;;;;;;;3.38;0.60;;;13.70;97.50;;;;;;5094749;28;19998;-76
2022/04/27 09:33:35;;;;;;;5.60;1.20;;;13.70;94.30;;;;;;5093378;28;20044;-76
2022/04/27 09:36:02;;;;;;;1.55;0.50;;;13.80;94.70;;;;;;5094412;28;20028;-76
2022/04/27 09:38:39;;;;;;;1.75;0.35;;;13.70;93.50;;;;;;5095097;28;20114;-73
2022/04/27 09:41:05;;;;;;;1.52;0.20;;;13.70;94.00;;;;;;5093160;28;20499;-76
2022/04/27 09:43:50;;;;;;;5.40;0.75;;;13.70;93.30;;;;;;5093203;28;20020;-76
2022/04/27 09:46:22;;;;;;;1.55;0.20;;;13.70;92.30;;;;;;5093234;28;20027;-76
2022/04/27 09:49:15;;;;;;;2.67;0.40;;;13.70;91.90;;;;;;5094728;28;20029;-76
2022/04/27 09:51:53;;;;;;;4.28;0.43;;;13.90;95.60;;;;;;5094243;28;20066;-76
2022/04/27 09:54:23;;;;;;;3.88;0.30;;;14.30;90.40;;;;;;5094052;28;20020;-76
2022/04/27 09:56:55;;;;;;;4.05;0.22;;;14.40;88.70;;;;;;5093008;28;20031;-76
2022/04/27 09:59:31;;;;;;;2.22;0.20;;;14.50;90.10;;;;;;5094251;28;20031;-76
2022/04/27 10:02:11;;;;;;;2.63;0.22;;;14.60;90.40;;;;;;5092763;28;20040;-76
2022/04/27 10:04:37;;;;;;;1.42;0.10;;;14.60;83.80;;;;;;5092864;28;20457;-76
2022/04/27 10:07:07;;;;;;;2.08;0.00;;;14.50;88.30;;;;;;5094061;28;20039;-76
2022/04/27 10:09:33;;;;;;;1.98;0.35;;;14.50;85.50;;;;;;5093987;28;20039;-76
2022/04/27 10:12:03;;;;;;;3.60;0.30;;;14.60;86.20;;;;;;5093728;28;20043;-76
2022/04/27 10:14:29;;;;;;;4.45;0.43;;;14.60;86.40;;;;;;5092708;28;20059;-76
2022/04/27 10:16:56;;;;;;;1.08;0.17;;;14.60;82.90;;;;;;5094055;28;20036;-76
2022/04/27 10:19:22;;;;;;;0.90;0.00;;;14.60;83.30;;;;;;5093792;28;20081;-76
2022/04/27 10:24:33;;;;;;;2.72;0.20;;;14.40;79.10;;;;;;5094113;28;20125;-76
2022/04/27 10:27:40;;;;;;;1.77;0.20;;;14.20;81.30;;;;;;5092425;28;20415;-76
2022/04/27 10:30:11;;;;;;;2.22;0.20;;;14.40;82.40;;;;;;5092349;28;20033;-76
2022/04/27 10:32:53;;;;;;;2.00;0.10;;;14.40;82.40;;;;;;5093562;28;20032;-77
2022/04/27 10:35:27;;;;;;;2.58;0.45;;;14.30;80.30;;;;;;5093917;28;20051;-76
2022/04/27 10:37:58;;;;;;;2.08;0.10;;;14.50;79.80;;;;;;5092724;28;20094;-76
2022/04/27 10:40:42;;;;;;;4.20;0.10;;;14.30;74.60;;;;;;5093545;28;20040;-76
2022/04/27 10:43:27;;;;;;;3.58;0.10;;;14.20;77.70;;;;;;5092409;28;20545;-76
2022/04/27 10:45:53;;;;;;;1.17;0.20;;;14.20;79.70;;;;;;5093003;28;20040;-76
2022/04/27 10:48:48;;;;;;;2.13;0.00;;;14.40;81.20;;;;;;5092904;28;20089;-76
2022/04/27 10:51:13;;;;;;;3.42;0.20;;;14.70;80.80;;;;;;5092216;28;20025;-76
2022/04/27 10:53:41;;;;;;;0.65;0.63;;;14.70;79.90;;;;;;5093405;28;20043;-77
2022/04/27 10:56:24;;;;;;;2.55;0.50;;;14.70;75.40;;;;;;5093647;28;20085;-76
2022/04/27 10:58:49;;;;;;;2.50;0.10;;;15.00;75.70;;;;;;5092067;28;20036;-76
2022/04/27 11:01:26;;;;;;;1.00;0.20;;;15.30;75.80;;;;;;5091973;28;20031;-76
2022/04/27 11:03:57;;;;;;;1.30;0.40;;;15.30;69.10;;;;;;5092076;28;20032;-76
2022/04/27 11:06:23;;;;;;;1.40;0.00;;;15.40;69.80;;;;;;5092009;28;20431;-76
2022/04/27 11:09:04;;;;;;;1.90;0.28;;;16.00;77.40;;;;;;5093432;28;20498;-76
2022/04/27 11:11:31;;;;;;;2.92;0.30;;;16.30;65.20;;;;;;5093130;28;20036;-76
2022/04/27 11:14:06;;;;;;;1.25;0.17;;;16.60;64.30;;;;;;5091982;28;20032;-76
2022/04/27 11:16:43;;;;;;;2.95;0.10;;;16.50;62.90;;;;;;5093888;28;20028;-76
2022/04/27 11:19:09;;;;;;;1.15;0.05;;;16.30;66.60;;;;;;5093306;28;20028;-76
2022/04/27 11:21:34;;;;;;;2.90;0.10;;;16.30;65.70;;;;;;5091861;28;20059;-76
2022/04/27 11:24:05;;;;;;;3.90;0.55;;;16.30;64.30;;;;;;5091962;28;20042;-76
2022/04/27 11:26:31;;;;;;;1.35;0.10;;;16.30;64.20;;;;;;5093763;28;20115;-76
2022/04/27 11:28:57;;;;;;;6.78;0.55;;;16.30;63.20;;;;;;5093385;28;20469;-76
2022/04/27 11:31:23;;;;;;;1.48;0.00;;;16.10;63.90;;;;;;5093521;28;20028;-76
2022/04/27 11:33:49;;;;;;;1.38;0.10;;;16.10;63.50;;;;;;5092992;28;20085;-76
2022/04/27 11:36:26;;;;;;;0.43;0.10;;;16.00;60.60;;;;;;5093017;28;20497;-76
2022/04/27 11:38:53;;;;;;;0.25;0.00;;;15.80;62.60;;;;;;5093344;28;20031;-76
2022/04/27 11:41:21;;;;;;;1.50;0.20;;;15.90;64.50;;;;;;5093176;28;20028;-76
2022/04/27 11:43:48;;;;;;;3.55;0.40;;;16.00;67.30;;;;;;5093518;28;20092;-76
2022/04/27 11:46:14;;;;;;;2.42;0.20;;;15.80;61.40;;;;;;5092811;28;20081;-76
2022/04/27 11:48:45;;;;;;;1.58;0.03;;;15.40;63.60;;;;;;5091667;28;20028;-76
2022/04/27 11:51:11;;;;;;;2.05;0.20;;;15.60;64.80;;;;;;5092879;28;20028;-76
2022/04/27 11:53:47;;;;;;;1.60;0.35;;;15.50;61.60;;;;;;5092800;28;20039;-76
2022/04/27 11:56:14;;;;;;;4.28;0.00;;;15.40;66.00;;;;;;5091760;28;20174;-76
2022/04/27 11:58:40;;;;;;;7.68;0.70;;;15.50;69.60;;;;;;5092842;28;20115;-76
2022/04/27 12:01:06;;;;;;;2.05;0.00;;;15.50;68.60;;;;;;5093167;28;20067;-76
2022/04/27 12:03:40;;;;;;;2.10;0.65;;;15.30;68.80;;;;;;5096388;28;20540;-75
2022/04/27 12:06:06;;;;;;;0.80;0.00;;;15.10;69.40;;;;;;5096998;28;20388;-76
2022/04/27 12:08:33;;;;;;;4.00;0.52;;;15.20;72.90;;;;;;5096347;28;20409;-76
2022/04/27 12:10:59;;;;;;;2.42;0.35;;;15.30;72.60;;;;;;5096089;28;20504;-76
2022/04/27 12:13:25;;;;;;;1.45;0.00;;;15.50;76.30;;;;;;5096640;28;20028;-76
2022/04/27 12:15:52;;;;;;;5.15;0.63;;;15.60;72.90;;;;;;5096204;28;20036;-76
2022/04/27 12:18:19;;;;;;;3.95;0.43;;;15.60;72.20;;;;;;5094825;28;20036;-76
2022/04/27 12:20:46;;;;;;;0.77;0.05;;;15.60;70.70;;;;;;5096002;28;20040;-76
2022/04/27 12:23:16;;;;;;;2.90;0.50;;;15.60;71.30;;;;;;5095947;28;20042;-76
2022/04/27 12:25:55;;;;;;;3.03;0.03;;;15.50;70.30;;;;;;5094684;28;20035;-76
2022/04/27 12:28:35;;;;;;;2.20;0.10;;;15.60;70.60;;;;;;5094725;28;20054;-76
2022/04/27 12:31:06;;;;;;;2.95;0.28;;;15.80;70.20;;;;;;5095861;28;20031;-76
2022/04/27 12:34:01;;;;;;;2.10;0.30;;;15.90;66.90;;;;;;5095780;28;20032;-76
2022/04/27 12:39:23;;;;;;;1.73;0.30;;;16.20;66.40;;;;;;5096246;28;20039;-75
2022/04/27 12:41:50;;;;;;;1.13;0.20;;;16.40;69.20;;;;;;5095572;28;20086;-75
2022/04/27 12:44:18;;;;;;;5.32;0.20;;;17.10;71.20;;;;;;5094844;28;20035;-75
2022/04/27 12:46:59;;;;;;;1.13;0.10;;;17.70;64.70;;;;;;5095750;28;20036;-75
2022/04/27 12:49:34;;;;;;;4.65;0.20;;;20.70;65.30;;;;;;5095758;28;20043;-75
2022/04/27 12:52:16;;;;;;;2.40;0.43;;;18.90;58.40;;;;;;5095419;28;20021;-76
2022/04/27 12:54:43;;;;;;;4.45;0.57;;;19.20;57.50;;;;;;5095551;28;20501;-76
2022/04/27 12:57:12;;;;;;;2.85;0.35;;;19.50;57.70;;;;;;5095334;28;20441;-76
2022/04/27 12:59:58;;;;;;;5.05;0.00;;;19.10;55.90;;;;;;5094040;28;20104;-76
2022/04/27 13:02:24;;;;;;;2.80;0.20;;;18.70;56.00;;;;;;5095103;28;20227;-76
2022/04/27 13:04:52;;;;;;;2.05;0.00;;;18.30;56.60;;;;;;5095208;28;20032;-75
2022/04/27 13:07:18;;;;;;;5.05;0.28;;;18.50;57.60;;;;;;5095182;28;20110;-75
2022/04/27 13:12:30;;;;;;;3.25;0.75;;;19.00;54.30;;;;;;5095263;28;20094;-76
2022/04/27 13:14:59;;;;;;;7.35;0.55;;;19.10;54.90;;;;;;5094993;28;20032;-75
2022/04/27 13:17:25;;;;;;;3.97;0.47;;;19.10;55.70;;;;;;5094951;28;20504;-76
2022/04/27 13:19:51;;;;;;;2.47;0.20;;;18.90;55.30;;;;;;5094839;28;20028;-76
2022/04/27 13:22:16;;;;;;;1.55;0.00;;;18.50;55.70;;;;;;5095074;28;20392;-76
2022/04/27 13:24:42;;;;;;;2.72;0.20;;;18.30;57.90;;;;;;5095031;28;20024;-76
2022/04/27 13:27:07;;;;;;;3.13;0.10;;;17.90;56.00;;;;;;5093539;28;20501;-76
2022/04/27 13:29:33;;;;;;;3.33;0.05;;;17.50;56.50;;;;;;5095241;28;20032;-75
2022/04/27 13:31:58;;;;;;;3.78;0.15;;;17.00;57.20;;;;;;5093363;28;20028;-76
2022/04/27 13:34:24;;;;;;;3.97;0.20;;;16.80;60.90;;;;;;5095139;28;20051;-76
2022/04/27 13:36:49;;;;;;;2.75;0.65;;;16.90;60.50;;;;;;5094500;28;20028;-76
2022/04/27 13:39:17;;;;;;;3.55;0.00;;;17.00;61.30;;;;;;5095027;28;20040;-76
2022/04/27 13:41:43;;;;;;;5.18;0.10;;;17.30;61.30;;;;;;5093209;28;20119;-76
2022/04/27 13:44:08;;;;;;;6.07;0.30;;;18.00;57.80;;;;;;5094344;28;20067;-76
2022/04/27 13:46:34;;;;;;;1.15;0.00;;;18.30;59.40;;;;;;5094843;28;20028;-76
2022/04/27 13:49:02;;;;;;;5.13;0.10;;;18.70;56.70;;;;;;5092923;28;20439;-76
2022/04/27 13:51:28;;;;;;;0.47;0.10;;;18.80;55.20;;;;;;5092921;28;20430;-76
2022/04/27 13:53:54;;;;;;;2.15;0.05;;;18.70;55.80;;;;;;5094094;28;20115;-75
2022/04/27 13:56:19;;;;;;;7.18;0.10;;;19.00;57.40;;;;;;5092773;28;20039;-76
2022/04/27 13:58:45;;;;;;;5.88;0.00;;;19.00;54.00;;;;;;5094068;28;20485;-76
2022/04/27 14:01:11;;;;;;;3.10;0.40;;;19.10;54.30;;;;;;5094006;28;20081;-76
2022/04/27 14:03:37;;;;;;;3.03;0.40;;;19.30;54.70;;;;;;5094134;28;20029;-76
2022/04/27 14:06:03;;;;;;;5.28;0.10;;;19.30;55.30;;;;;;5093004;28;20028;-75
2022/04/27 14:08:28;;;;;;;3.60;0.10;;;19.10;54.90;;;;;;5092779;28;20039;-76
2022/04/27 14:10:55;;;;;;;2.60;0.20;;;18.90;53.40;;;;;;5092450;28;20093;-76
2022/04/27 14:13:22;;;;;;;5.57;0.52;;;18.00;54.40;;;;;;5094234;28;20114;-75
2022/04/27 14:18:32;;;;;;;3.20;0.32;;;17.30;56.30;;;;;;5094168;28;20092;-76
2022/04/27 14:20:59;;;;;;;5.20;0.43;;;16.90;56.10;;;;;;5092468;28;20039;-76
2022/04/27 14:23:25;;;;;;;1.60;0.05;;;16.70;58.70;;;;;;5091716;28;20042;-76
2022/04/27 14:25:51;;;;;;;3.10;0.22;;;17.10;61.50;;;;;;5093732;28;20036;-75
2022/04/27 14:28:18;;;;;;;6.43;0.00;;;17.50;59.70;;;;;;5093679;28;20024;-75
2022/04/27 14:30:45;;;;;;;3.80;0.47;;;18.00;59.30;;;;;;5093937;28;20198;-75
2022/04/27 14:33:11;;;;;;;5.00;0.10;;;18.00;56.70;;;;;;5092143;28;20059;-75
2022/04/27 14:35:38;;;;;;;3.47;0.20;;;18.60;55.10;;;;;;5092225;28;20142;-75
2022/04/27 14:38:05;;;;;;;2.20;0.10;;;18.80;54.80;;;;;;5092318;28;20062;-75
2022/04/27 14:40:34;;;;;;;2.40;0.32;;;19.60;56.00;;;;;;5093500;28;20028;-75
2022/04/27 14:43:01;;;;;;;2.25;0.20;;;20.00;52.90;;;;;;5091949;28;20032;-75
2022/04/27 14:45:27;;;;;;;1.75;0.35;;;20.10;51.10;;;;;;5092088;28;20036;-75
2022/04/27 14:47:53;;;;;;;4.25;0.00;;;20.20;51.00;;;;;;5093431;28;20036;-75
2022/04/27 14:50:19;;;;;;;1.85;0.20;;;20.30;50.90;;;;;;5093958;28;20489;-74
2022/04/27 14:52:45;;;;;;;2.78;0.40;;;20.60;49.50;;;;;;5093324;28;20036;-74
2022/04/27 14:55:10;;;;;;;4.07;0.40;;;20.90;49.30;;;;;;5093371;28;20036;-75
2022/04/27 14:57:36;;;;;;;5.07;0.17;;;21.70;47.50;;;;;;5091990;28;20104;-74
2022/04/27 15:00:04;;;;;;;4.13;0.38;;;22.30;46.70;;;;;;5093333;28;20051;-75
2022/04/27 15:02:32;;;;;;;1.85;0.10;;;22.80;46.60;;;;;;5093441;28;20069;-75
2022/04/27 15:04:59;;;;;;;1.75;0.10;;;23.20;44.10;;;;;;5093166;28;20039;-74
2022/04/27 15:07:24;;;;;;;1.92;0.10;;;23.20;43.40;;;;;;5093736;28;20109;-75
2022/04/27 15:09:50;;;;;;;3.45;0.43;;;22.90;43.70;;;;;;5093262;28;20070;-75
2022/04/27 15:12:16;;;;;;;5.03;0.22;;;23.20;43.20;;;;;;5093100;28;20032;-75
2022/04/27 15:14:42;;;;;;;0.95;0.10;;;23.80;43.10;;;;;;5093105;28;20099;-75
2022/04/27 15:17:07;;;;;;;1.33;0.38;;;23.60;41.50;;;;;;5092142;28;20032;-74
2022/04/27 15:19:35;;;;;;;1.42;0.20;;;23.40;41.10;;;;;;5093271;28;20040;-72
2022/04/27 15:24:45;;;;;;;6.43;0.40;;;23.40;41.80;;;;;;5093216;28;20217;-72
2022/04/27 15:27:13;;;;;;;1.63;0.00;;;22.80;41.70;;;;;;5092956;28;20059;-72
2022/04/27 15:29:40;;;;;;;1.90;0.17;;;22.60;42.50;;;;;;5093176;28;20042;-72
2022/04/27 15:32:07;;;;;;;2.47;0.32;;;22.30;41.80;;;;;;5091712;28;20055;-72
2022/04/27 15:34:33;;;;;;;1.07;0.30;;;21.90;44.80;;;;;;5092613;28;20424;-72
2022/04/27 15:36:59;;;;;;;3.13;0.35;;;21.00;42.80;;;;;;5096993;28;20059;-72
2022/04/27 15:39:26;;;;;;;4.63;0.00;;;20.60;45.00;;;;;;5096922;28;20040;-72
2022/04/27 15:41:51;;;;;;;3.53;0.17;;;20.70;46.10;;;;;;5095452;28;20043;-72
2022/04/27 15:44:17;;;;;;;5.13;0.47;;;20.90;44.90;;;;;;5096920;28;20027;-72
2022/04/27 15:46:43;;;;;;;2.75;0.20;;;21.40;45.70;;;;;;5095247;28;20024;-75
2022/04/27 15:49:11;;;;;;;1.92;0.00;;;21.80;44.20;;;;;;5096562;28;20085;-75
2022/04/27 15:51:38;;;;;;;4.83;0.30;;;22.40;43.10;;;;;;5096958;28;20067;-75
2022/04/27 15:54:04;;;;;;;6.30;0.47;;;23.00;42.20;;;;;;5096799;28;20021;-75
2022/04/27 15:56:33;;;;;;;3.60;0.10;;;23.20;40.50;;;;;;5096677;28;20476;-74
2022/04/27 15:59:03;;;;;;;3.28;0.10;;;24.00;40.70;;;;;;5096401;28;20032;-75
2022/04/27 16:01:35;;;;;;;2.97;0.15;;;24.30;38.10;;;;;;5096619;28;20028;-75
2022/04/27 16:04:02;;;;;;;2.78;0.10;;;24.50;38.40;;;;;;5095165;28;20400;-75
2022/04/27 16:06:27;;;;;;;1.48;0.10;;;24.40;38.30;;;;;;5096252;28;20036;-75
2022/04/27 16:08:53;;;;;;;2.65;0.28;;;24.40;37.50;;;;;;5095067;28;20507;-75
2022/04/27 16:11:20;;;;;;;1.10;0.10;;;24.60;38.60;;;;;;5095951;28;20032;-75
2022/04/27 16:13:46;;;;;;;2.38;0.10;;;24.70;37.90;;;;;;5096127;28;20107;-74
2022/04/27 16:16:12;;;;;;;1.92;0.08;;;24.30;37.50;;;;;;5096905;28;20040;-75
2022/04/27 16:18:38;;;;;;;1.90;0.10;;;23.30;38.80;;;;;;5096125;28;20439;-75
2022/04/27 16:23:50;;;;;;;1.95;0.00;;;21.40;41.50;;;;;;5096516;28;20532;-74
2022/04/27 16:26:16;;;;;;;4.57;0.08;;;21.30;40.90;;;;;;5096160;28;20137;-74
2022/04/27 16:28:42;;;;;;;2.85;0.03;;;21.40;41.80;;;;;;5096462;28;20438;-74
2022/04/27 16:31:08;;;;;;;1.60;0.28;;;21.20;42.30;;;;;;5095774;28;20119;-74
2022/04/27 16:33:33;;;;;;;1.50;0.00;;;20.80;43.20;;;;;;5095788;28;20099;-74
2022/04/27 16:35:59;;;;;;;1.35;0.00;;;21.00;42.40;;;;;;5096090;28;20024;-74
2022/04/27 16:38:24;;;;;;;1.17;0.10;;;21.80;42.20;;;;;;5095739;28;20040;-74
2022/04/27 16:40:53;;;;;;;2.83;0.00;;;22.40;40.10;;;;;;5094332;28;20032;-74
2022/04/27 16:43:19;;;;;;;4.35;0.55;;;22.90;40.00;;;;;;5095901;28;20057;-74
2022/04/27 16:45:45;;;;;;;1.27;0.00;;;22.90;38.20;;;;;;5094979;28;20123;-74
2022/04/27 16:48:12;;;;;;;0.95;0.00;;;23.00;39.30;;;;;;5095662;28;20065;-74
2022/04/27 16:50:37;;;;;;;1.88;0.00;;;23.10;38.40;;;;;;5094188;28;20040;-74
2022/04/27 16:53:03;;;;;;;1.55;0.00;;;22.60;39.00;;;;;;5095236;28;20481;-74
2022/04/27 16:55:29;;;;;;;1.23;0.00;;;22.50;39.80;;;;;;5095415;28;20028;-75
2022/04/27 16:57:55;;;;;;;2.15;0.10;;;22.20;39.50;;;;;;5095764;28;20519;-75
2022/04/27 17:03:05;;;;;;;1.50;0.10;;;21.10;40.10;;;;;;5095474;28;20050;-75
2022/04/27 17:05:31;;;;;;;4.63;0.00;;;20.10;42.90;;;;;;5095104;28;20111;-75
2022/04/27 17:07:56;;;;;;;3.38;0.30;;;19.10;45.60;;;;;;5093885;28;20085;-75
2022/04/27 17:10:22;;;;;;;5.20;0.43;;;18.10;46.20;;;;;;5095565;28;20536;-75
2022/04/27 17:12:49;;;;;;;4.15;0.63;;;17.30;48.50;;;;;;5093701;28;20044;-75
2022/04/27 17:15:15;;;;;;;1.92;0.00;;;16.50;49.60;;;;;;5095045;28;20403;-75
2022/04/27 17:17:40;;;;;;;2.30;0.40;;;15.90;51.30;;;;;;5093704;28;20130;-74
2022/04/27 17:20:08;;;;;;;3.35;0.20;;;15.30;53.10;;;;;;5094889;28;20036;-74
2022/04/27 17:22:33;;;;;;;4.78;0.45;;;15.00;54.40;;;;;;5093606;28;20572;-74
2022/04/27 17:24:59;;;;;;;3.92;0.20;;;14.70;56.20;;;;;;5093543;28;20052;-74
2022/04/27 17:27:29;;;;;;;3.63;0.40;;;14.30;57.30;;;;;;5094972;28;20581;-75
2022/04/27 17:29:59;;;;;;;8.50;0.90;;;14.10;56.60;;;;;;5095275;28;20115;-74
2022/04/27 17:32:26;;;;;;;1.83;0.10;;;13.90;57.20;;;;;;5093353;28;20409;-75
2022/04/27 17:34:52;;;;;;;2.42;0.00;;;13.60;59.30;;;;;;5093358;28;20020;-75
2022/04/27 17:37:18;;;;;;;2.05;0.20;;;13.50;61.00;;;;;;5094971;28;20047;-75
2022/04/27 17:39:44;;;;;;;3.38;0.77;;;13.40;59.90;;;;;;5094552;28;20396;-75
2022/04/27 17:44:54;;;;;;;2.95;0.00;;;13.10;63.10;;;;;;5095386;28;20039;-73
2022/04/27 17:47:20;;;;;;;2.90;0.22;;;13.00;63.60;;;;;;5094807;28;20127;-75
2022/04/27 17:49:46;;;;;;;3.20;0.55;;;12.80;64.30;;;;;;5094022;28;20162;-75
2022/04/27 17:52:16;;;;;;;2.40;0.05;;;12.70;64.10;;;;;;5094971;28;20032;-73
2022/04/27 17:54:45;;;;;;;5.53;0.08;;;12.60;66.10;;;;;;5094956;28;20116;-73
2022/04/27 17:57:11;;;;;;;6.32;0.22;;;12.50;68.30;;;;;;5092951;28;20428;-73
2022/04/27 17:59:36;;;;;;;2.30;0.03;;;12.40;69.10;;;;;;5094453;28;20073;-75
2022/04/27 18:02:05;;;;;;;2.42;0.20;;;12.30;69.90;;;;;;5094788;28;20041;-73
2022/04/27 18:04:31;;;;;;;4.47;1.02;;;12.20;69.40;;;;;;5093391;28;20404;-73
2022/04/27 18:06:57;;;;;;;3.30;0.00;;;12.10;71.70;;;;;;5094418;28;20085;-74
2022/04/27 18:09:27;;;;;;;5.30;0.68;;;12.50;72.70;;;;;;5093250;28;20032;-74
2022/04/27 18:11:53;;;;;;;3.65;0.05;;;11.90;71.60;;;;;;5093132;28;20044;-73
2022/04/27 18:14:19;;;;;;;5.25;1.08;;;11.80;73.80;;;;;;5094423;28;20036;-73
2022/04/27 18:16:45;;;;;;;1.40;0.00;;;11.80;76.40;;;;;;5094189;28;20401;-73
2022/04/27 18:19:11;;;;;;;2.47;0.00;;;11.70;76.00;;;;;;5093922;28;20035;-73
2022/04/27 18:21:37;;;;;;;3.83;0.43;;;11.70;77.10;;;;;;5094276;28;20028;-73
2022/04/27 18:24:03;;;;;;;1.70;0.15;;;11.60;78.20;;;;;;5093799;28;20060;-73
2022/04/27 18:26:30;;;;;;;3.22;0.10;;;11.50;81.10;;;;;;5092464;28;20059;-73
2022/04/27 18:28:56;;;;;;;2.58;0.20;;;11.40;80.90;;;;;;5093875;28;20020;-73
2022/04/27 18:31:21;;;;;;;3.03;0.28;;;11.30;81.60;;;;;;5094212;28;20032;-73
2022/04/27 18:33:48;;;;;;;3.03;0.08;;;11.20;83.60;;;;;;5092384;28;20020;-73
2022/04/27 18:36:13;;;;;;;4.57;0.10;;;11.10;88.00;;;;;;5093721;28;20036;-76
2022/04/27 18:38:39;;;;;;;5.00;0.10;;;10.90;90.40;;;;;;5093811;28;20451;-73
2022/04/27 18:41:06;;;;;;;4.60;0.30;;;10.80;92.10;;;;;;5093589;28;20445;-73
2022/04/27 18:51:59;;;;;;;4.75;0.00;;;10.30;99.80;;;;;;5094048;28;20510;-76
2022/04/27 18:54:24;;;;;;;7.93;0.65;;;10.20;99.90;;;;;;5093876;28;20032;-76
2022/04/27 18:56:50;;;;;;;4.53;0.40;;;10.10;99.90;;;;;;5093884;28;20020;-76
2022/04/27 18:59:16;;;;;;;5.57;0.25;;;10.00;99.90;;;;;;5092197;28;20031;-76
2022/04/27 19:01:42;;;;;;;2.05;0.32;;;9.90;99.90;;;;;;5094001;28;20039;-76
2022/04/27 19:04:07;;;;;;;4.65;0.15;;;9.80;99.90;;;;;;5094055;28;20488;-76
2022/04/27 19:06:33;;;;;;;1.13;0.10;;;9.70;99.90;;;;;;5093835;28;20029;-76
2022/04/27 19:08:59;;;;;;;1.02;0.10;;;9.60;99.90;;;;;;5093447;28;20473;-76
2022/04/27 19:11:25;;;;;;;3.20;0.28;;;9.50;99.90;;;;;;5097797;28;20122;-76
2022/04/27 19:13:51;;;;;;;6.35;0.95;;;9.40;99.90;;;;;;5098166;28;20465;-76
2022/04/27 19:16:16;;;;;;;3.55;0.35;;;9.30;99.90;;;;;;5096397;28;20032;-76
2022/04/27 19:18:42;;;;;;;5.90;0.43;;;9.30;99.90;;;;;;5097691;28;20056;-76
2022/04/27 19:21:08;;;;;;;4.93;0.88;;;9.20;99.90;;;;;;5097493;28;20034;-76
2022/04/27 19:23:33;;;;;;;8.82;0.52;;;9.10;99.90;;;;;;5096552;28;20043;-73
2022/04/27 19:26:04;;;;;;;5.53;0.73;;;9.00;99.90;;;;;;5104863;22;20044;-74
2022/04/27 19:28:30;;;;;;;8.07;0.75;;;9.20;99.90;;;;;;5098261;28;20032;-74
2022/04/27 19:30:56;;;;;;;9.10;0.70;;;8.90;99.90;;;;;;5097756;28;20024;-74
2022/04/27 19:33:21;;;;;;;1.65;0.28;;;8.80;99.90;;;;;;5098223;28;20102;-74
2022/04/27 19:35:48;;;;;;;2.60;0.30;;;8.70;99.90;;;;;;5097826;28;20024;-73
2022/04/27 19:38:14;;;;;;;2.65;0.20;;;8.60;99.90;;;;;;5097876;28;20075;-73
2022/04/27 19:40:41;;;;;;;5.15;0.38;;;8.60;99.90;;;;;;5097953;28;20515;-73
2022/04/27 19:43:06;;;;;;;7.57;0.32;;;8.50;99.90;;;;;;5096602;28;20032;-73
2022/04/27 19:45:32;;;;;;;3.60;0.75;;;8.50;99.90;;;;;;5097469;28;20039;-73
2022/04/27 19:47:58;;;;;;;5.78;0.43;;;8.40;99.90;;;;;;5097433;28;20111;-73
2022/04/27 19:50:25;;;;;;;4.60;0.20;;;8.40;99.90;;;;;;5096351;28;20192;-73
2022/04/27 19:52:57;;;;;;;3.38;0.30;;;8.30;99.90;;;;;;5096126;28;20069;-73
2022/04/27 19:55:24;;;;;;;4.88;0.57;;;8.20;99.90;;;;;;5098580;28;20069;-73
2022/04/27 19:57:52;;;;;;;6.72;0.35;;;8.20;99.90;;;;;;5096290;28;20037;-73
2022/04/27 20:00:18;;;;;;;3.28;0.40;;;8.20;99.90;;;;;;5096218;28;20093;-73
2022/04/27 20:02:44;;;;;;;6.75;0.68;;;8.20;99.90;;;;;;5097533;28;20382;-73
2022/04/27 20:05:13;;;;;;;2.45;0.30;;;8.10;99.90;;;;;;5097781;28;20024;-73
2022/04/27 20:07:40;;;;;;;6.05;0.65;;;8.10;99.90;;;;;;5097965;28;20039;-73
2022/04/27 20:10:08;;;;;;;2.67;0.22;;;8.10;99.90;;;;;;5097826;28;20397;-73
2022/04/27 20:12:34;;;;;;;2.75;0.10;;;8.00;99.90;;;;;;5098042;28;20028;-73
2022/04/27 20:15:00;;;;;;;3.70;0.17;;;8.00;99.90;;;;;;5098356;28;20048;-73
2022/04/27 20:17:27;;;;;;;1.98;0.45;;;7.90;99.90;;;;;;5096527;28;20105;-73
2022/04/27 20:19:53;;;;;;;3.85;0.30;;;7.90;99.90;;;;;;5097304;28;20078;-73
2022/04/27 20:22:19;;;;;;;1.40;0.10;;;7.80;99.90;;;;;;5095831;28;20032;-73
2022/04/27 20:24:45;;;;;;;3.53;0.75;;;7.80;99.90;;;;;;5097207;28;20036;-73
2022/04/27 20:27:12;;;;;;;4.75;0.10;;;7.80;99.90;;;;;;5096705;28;20040;-73
2022/04/27 20:29:38;;;;;;;6.30;0.55;;;7.70;99.90;;;;;;5096938;28;20400;-73
2022/04/27 20:32:07;;;;;;;3.70;0.32;;;7.70;99.90;;;;;;5096950;28;20039;-73
2022/04/27 20:34:32;;;;;;;;;;;7.70;99.90;;;;;;5096350;28;20028;-73
2022/04/27 20:36:58;;;;;;;5.78;0.32;;;7.60;99.90;;;;;;5096929;28;20005;-73
2022/04/27 20:39:27;;;;;;;4.60;0.40;;;7.60;99.90;;;;;;5096594;28;20031;-73
2022/04/27 20:41:53;;;;;;;2.28;0.50;;;7.60;99.90;;;;;;5095483;28;20036;-73
2022/04/27 20:44:18;;;;;;;4.38;0.40;;;7.50;99.90;;;;;;5095391;28;20082;-73
2022/04/27 20:46:44;;;;;;;3.00;0.38;;;7.50;99.90;;;;;;5096816;28;20111;-73
2022/04/27 20:49:09;;;;;;;6.28;0.20;;;7.40;99.90;;;;;;5097202;28;20032;-73
2022/04/27 20:51:35;;;;;;;7.40;0.40;;;7.40;99.90;;;;;;5097351;28;20064;-73
2022/04/27 20:54:01;;;;;;;4.43;1.48;;;7.30;99.90;;;;;;5096886;28;20035;-73
2022/04/27 20:56:26;;;;;;;5.57;0.55;;;7.30;99.90;;;;;;5095910;28;20081;-73
2022/04/27 20:58:52;;;;;;;4.15;0.47;;;7.30;99.90;;;;;;5095568;28;20028;-73
2022/04/27 21:01:18;;;;;;;2.15;0.40;;;7.20;99.90;;;;;;5096415;28;20047;-73
2022/04/27 21:03:44;;;;;;;4.65;0.45;;;7.20;99.90;;;;;;5097270;28;20038;-73
2022/04/27 21:06:09;;;;;;;5.63;0.15;;;7.20;99.90;;;;;;5094895;28;20024;-73
2022/04/27 21:08:35;;;;;;;5.63;1.08;;;7.20;99.90;;;;;;5095456;28;20439;-73
2022/04/27 21:11:02;;;;;;;5.78;0.95;;;7.20;99.90;;;;;;5096983;28;20024;-73
2022/04/27 21:13:28;;;;;;;8.13;0.65;;;7.10;99.90;;;;;;5097525;28;20039;-73
2022/04/27 21:15:53;;;;;;;4.40;0.30;;;7.00;99.90;;;;;;5096975;28;20032;-73
2022/04/27 21:18:20;;;;;;;5.75;0.30;;;7.00;99.90;;;;;;5096775;28;20072;-73
2022/04/27 21:20:46;;;;;;;6.43;0.90;;;7.00;99.90;;;;;;5096489;28;20484;-73
2022/04/27 21:23:12;;;;;;;1.95;0.20;;;7.00;99.90;;;;;;5096688;28;20028;-73
2022/04/27 21:25:39;;;;;;;4.35;0.38;;;6.90;99.90;;;;;;5096006;28;20115;-73
2022/04/27 21:28:05;;;;;;;5.28;0.20;;;6.90;99.90;;;;;;5094867;28;20499;-73
2022/04/27 21:30:31;;;;;;;3.35;0.68;;;6.80;99.90;;;;;;5096448;28;20070;-73
2022/04/27 21:32:57;;;;;;;3.47;0.40;;;6.80;99.90;;;;;;5095641;28;20129;-73
2022/04/27 21:35:23;;;;;;;6.05;0.20;;;6.70;99.90;;;;;;5094873;28;20036;-73
2022/04/27 21:37:49;;;;;;;2.90;0.30;;;6.70;99.90;;;;;;5096350;28;20381;-73
2022/04/27 21:40:15;;;;;;;3.05;0.30;;;6.60;99.90;;;;;;5096260;28;20090;-73
2022/04/27 21:42:41;;;;;;;4.85;0.47;;;6.60;99.90;;;;;;5094374;28;20024;-73
2022/04/27 21:45:07;;;;;;;5.10;0.55;;;6.60;99.90;;;;;;5095931;28;20072;-73
2022/04/27 21:47:33;;;;;;;3.22;0.30;;;6.50;99.90;;;;;;5094529;28;20115;-73
2022/04/27 21:49:59;;;;;;;2.65;0.60;;;6.50;99.90;;;;;;5095583;28;20107;-73
2022/04/27 21:52:25;;;;;;;3.60;0.85;;;6.40;99.90;;;;;;5095685;28;20062;-73
2022/04/27 21:54:50;;;;;;;1.88;0.22;;;6.40;99.90;;;;;;5094009;28;20031;-73
2022/04/27 21:57:16;;;;;;;7.78;0.70;;;6.30;99.90;;;;;;5096021;28;20071;-73
2022/04/27 21:59:44;;;;;;;3.40;0.50;;;6.30;99.90;;;;;;5094065;28;20031;-73
2022/04/27 22:02:13;;;;;;;3.30;0.47;;;6.30;99.90;;;;;;5095535;28;20032;-73
2022/04/27 22:04:42;;;;;;;;;;;6.20;99.90;;;;;;5096333;28;20064;-73
2022/04/27 22:07:09;;;;;;;;;;;6.20;99.90;;;;;;5096352;28;19957;-73
2022/04/27 22:09:38;;;;;;;2.33;0.55;;;6.20;99.90;;;;;;5096323;28;19904;-73
2022/04/27 22:12:04;;;;;;;0.93;0.47;;;6.10;99.90;;;;;;5094789;28;20135;-73
2022/04/27 22:14:29;;;;;;;2.53;0.40;;;6.10;99.90;;;;;;5094964;28;20071;-73
2022/04/27 22:16:55;;;;;;;3.28;0.85;;;6.10;99.90;;;;;;5093893;28;20025;-73
2022/04/27 22:19:21;;;;;;;2.38;0.43;;;6.10;99.90;;;;;;5095239;28;20590;-73
2022/04/27 22:21:50;;;;;;;5.38;0.50;;;6.00;99.90;;;;;;5093798;28;20542;-73
2022/04/27 22:24:16;;;;;;;2.95;0.93;;;6.00;99.90;;;;;;5095154;28;20032;-73
2022/04/27 22:26:41;;;;;;;5.53;0.93;;;5.90;99.90;;;;;;5094653;28;20098;-73
2022/04/27 22:29:07;;;;;;;4.65;0.77;;;5.90;99.90;;;;;;5093443;28;20032;-73
2022/04/27 22:31:33;;;;;;;3.67;0.50;;;5.90;99.90;;;;;;5094705;28;20068;-73
2022/04/27 22:33:59;;;;;;;3.83;0.88;;;5.80;99.90;;;;;;5094660;28;20032;-73
2022/04/27 22:36:24;;;;;;;3.15;0.38;;;5.80;99.90;;;;;;5093524;28;20469;-73
2022/04/27 22:38:50;;;;;;;4.00;1.10;;;5.70;99.90;;;;;;5094973;28;20388;-73
2022/04/27 22:41:17;;;;;;;3.25;0.52;;;5.70;99.90;;;;;;5094851;28;20032;-73